Time;durP1;ratioP1;P1;durP2;ratioP2;P2;SDS_P1;SDS_P2;PMS_P1;PMS_P2;Temp;Humidity;BMP_temperature;BMP_pressure;BME280_temperature;BME280_humidity;BME280_pressure;Samples;Min_cycle;Max_cycle;Signal;HPM_P1;HPM_P2
2023/01/26 00:01:18;;;;;;;3.80;2.63;;;;;;;;;;5029336;28;20267;-72
2023/01/26 00:03:43;;;;;;;2.85;2.40;;;;;;;;;;5028027;28;20074;-73
2023/01/26 00:06:09;;;;;;;2.95;2.28;;;;;;;;;;5021174;28;20068;-68
2023/01/26 00:08:41;;;;;;;3.10;2.20;;;;;;;;;;5012496;28;20041;-64
2023/01/26 00:11:07;;;;;;;3.45;2.40;;;;;;;;;;5029135;28;20041;-72
2023/01/26 00:13:32;;;;;;;3.47;2.35;;;;;;;;;;5028012;28;20527;-65
2023/01/26 00:15:57;;;;;;;3.23;2.30;;;;;;;;;;5037331;28;20056;-73
2023/01/26 00:18:23;;;;;;;3.40;2.30;;;;;;;;;;5026710;28;20337;-73
2023/01/26 00:20:53;;;;;;;3.00;2.28;;;;;;;;;;5026859;28;20295;-73
2023/01/26 00:23:18;;;;;;;3.22;2.33;;;;;;;;;;5012131;28;20107;-71
2023/01/26 00:25:44;;;;;;;3.53;2.30;;;;;;;;;;5029360;28;20477;-71
2023/01/26 00:28:09;;;;;;;3.50;2.40;;;;;;;;;;5012459;28;20334;-73
2023/01/26 00:30:34;;;;;;;2.65;2.20;;;;;;;;;;5011522;28;20049;-65
2023/01/26 00:33:00;;;;;;;3.67;2.27;;;;;;;;;;5025151;28;20132;-68
2023/01/26 00:35:25;;;;;;;3.40;2.20;;;;;;;;;;5010833;28;20298;-70
2023/01/26 00:37:50;;;;;;;3.13;2.20;;;;;;;;;;5042353;28;20052;-73
2023/01/26 00:40:15;;;;;;;3.10;2.30;;;;;;;;;;5028475;28;20280;-71
2023/01/26 00:42:41;;;;;;;2.53;1.75;;;;;;;;;;5045115;28;20263;-74
2023/01/26 00:45:06;;;;;;;3.05;2.10;;;;;;;;;;5024695;28;20401;-71
2023/01/26 00:47:32;;;;;;;3.22;2.22;;;;;;;;;;5046760;28;20453;-72
2023/01/26 00:49:57;;;;;;;2.55;1.90;;;;;;;;;;5028040;28;20517;-73
2023/01/26 00:52:22;;;;;;;3.00;2.37;;;;;;;;;;5027084;28;20740;-69
2023/01/26 00:54:47;;;;;;;4.28;2.55;;;;;;;;;;5022998;28;20342;-70
2023/01/26 00:57:13;;;;;;;3.37;2.27;;;;;;;;;;5043351;28;20041;-72
2023/01/26 00:59:38;;;;;;;3.37;2.20;;;;;;;;;;5026963;28;20682;-68
2023/01/26 01:02:03;;;;;;;3.58;2.40;;;;;;;;;;5011294;28;20279;-70
2023/01/26 01:04:29;;;;;;;3.50;2.50;;;;;;;;;;5011036;28;20850;-68
2023/01/26 01:06:55;;;;;;;2.78;2.28;;;;;;;;;;5022583;28;20043;-64
2023/01/26 01:09:20;;;;;;;2.67;2.10;;;;;;;;;;5027518;28;20033;-72
2023/01/26 01:11:46;;;;;;;3.30;2.05;;;;;;;;;;5026272;28;20068;-65
2023/01/26 01:14:12;;;;;;;3.03;2.10;;;;;;;;;;5025548;28;20112;-71
2023/01/26 01:16:37;;;;;;;3.50;2.45;;;;;;;;;;5041024;28;20049;-67
2023/01/26 01:19:03;;;;;;;3.15;2.00;;;;;;;;;;5027970;28;20448;-75
2023/01/26 01:21:28;;;;;;;3.30;2.22;;;;;;;;;;5010820;28;20469;-72
2023/01/26 01:23:53;;;;;;;3.28;2.22;;;;;;;;;;5011756;28;20192;-62
2023/01/26 01:26:18;;;;;;;2.93;2.07;;;;;;;;;;5009307;28;20441;-71
2023/01/26 01:28:44;;;;;;;3.20;2.10;;;;;;;;;;5021365;28;20339;-74
2023/01/26 01:31:10;;;;;;;2.70;2.20;;;;;;;;;;5008161;28;20129;-73
2023/01/26 01:33:35;;;;;;;3.78;2.40;;;;;;;;;;5018067;28;20059;-69
2023/01/26 01:36:01;;;;;;;3.30;2.00;;;;;;;;;;5011102;28;20013;-74
2023/01/26 01:38:27;;;;;;;3.75;2.55;;;;;;;;;;5027213;28;20270;-71
2023/01/26 01:40:52;;;;;;;3.08;2.20;;;;;;;;;;5025885;28;20442;-68
2023/01/26 01:43:18;;;;;;;2.63;1.92;;;;;;;;;;5025225;28;20047;-74
2023/01/26 01:45:44;;;;;;;3.00;1.90;;;;;;;;;;5016140;28;20028;-72
2023/01/26 01:48:21;;;;;;;3.30;2.33;;;;;;;;;;5031394;28;20017;-75
2023/01/26 01:50:47;;;;;;;3.22;2.05;;;;;;;;;;5031315;28;20013;-72
2023/01/26 01:53:13;;;;;;;3.17;2.30;;;;;;;;;;5031371;28;20037;-75
2023/01/26 01:55:38;;;;;;;3.40;2.08;;;;;;;;;;5030877;28;20029;-71
2023/01/26 01:58:04;;;;;;;3.22;2.08;;;;;;;;;;5015045;28;20040;-72
2023/01/26 02:00:29;;;;;;;3.67;2.20;;;;;;;;;;5026085;28;20025;-68
2023/01/26 02:05:43;;;;;;;2.53;1.90;;;;;;;;;;5035806;28;20512;-69
2023/01/26 02:08:09;;;;;;;3.00;2.28;;;;;;;;;;5030732;28;20067;-73
2023/01/26 02:10:34;;;;;;;3.10;1.90;;;;;;;;;;5031215;28;20068;-72
2023/01/26 02:12:59;;;;;;;3.10;2.30;;;;;;;;;;5013684;28;20493;-72
2023/01/26 02:15:25;;;;;;;2.45;1.73;;;;;;;;;;5025164;28;20616;-65
2023/01/26 02:17:51;;;;;;;2.25;1.83;;;;;;;;;;4999170;28;20048;-69
2023/01/26 02:20:16;;;;;;;3.00;2.10;;;;;;;;;;5048179;28;20456;-73
2023/01/26 02:22:45;;;;;;;3.20;2.10;;;;;;;;;;5048380;28;20151;-72
2023/01/26 02:25:29;;;;;;;2.65;1.90;;;;;;;;;;5026890;28;20029;-72
2023/01/26 02:27:55;;;;;;;2.58;1.70;;;;;;;;;;5045916;28;20037;-72
2023/01/26 02:30:21;;;;;;;2.27;1.63;;;;;;;;;;5033343;28;20033;-69
2023/01/26 02:32:46;;;;;;;2.88;2.03;;;;;;;;;;5009364;28;20288;-72
2023/01/26 02:35:11;;;;;;;2.93;1.90;;;;;;;;;;5012107;28;20022;-72
2023/01/26 02:37:36;;;;;;;2.50;1.77;;;;;;;;;;5024778;28;20327;-66
2023/01/26 02:40:04;;;;;;;3.23;1.93;;;;;;;;;;5012099;28;20038;-68
2023/01/26 02:42:40;;;;;;;3.00;2.00;;;;;;;;;;5011533;28;20267;-66
2023/01/26 02:45:06;;;;;;;2.35;1.60;;;;;;;;;;5009037;28;20112;-65
2023/01/26 02:47:31;;;;;;;2.88;1.85;;;;;;;;;;5010641;28;20630;-72
2023/01/26 02:49:57;;;;;;;2.67;1.90;;;;;;;;;;4986581;28;20595;-73
2023/01/26 02:52:26;;;;;;;2.58;1.95;;;;;;;;;;4994690;28;20384;-71
2023/01/26 02:57:36;;;;;;;2.40;2.00;;;;;;;;;;5015065;28;20091;-70
2023/01/26 03:00:05;;;;;;;2.70;1.90;;;;;;;;;;5008311;28;20034;-62
2023/01/26 03:02:31;;;;;;;2.40;1.57;;;;;;;;;;5002194;28;20289;-73
2023/01/26 03:04:56;;;;;;;2.77;2.17;;;;;;;;;;5022180;28;20037;-72
2023/01/26 03:07:21;;;;;;;2.70;1.83;;;;;;;;;;4993860;28;20053;-72
2023/01/26 03:09:47;;;;;;;2.60;1.67;;;;;;;;;;5008343;28;20034;-74
2023/01/26 03:12:12;;;;;;;2.50;1.73;;;;;;;;;;4981358;28;20037;-72
2023/01/26 03:14:38;;;;;;;2.88;2.10;;;;;;;;;;4993276;28;20280;-70
2023/01/26 03:17:03;;;;;;;4.43;2.00;;;;;;;;;;5022260;28;20179;-60
2023/01/26 03:27:41;;;;;;;2.25;1.58;;;;;;;;;;5025756;28;20113;-71
2023/01/26 03:30:06;;;;;;;2.75;2.05;;;;;;;;;;5006951;28;20029;-72
2023/01/26 03:32:32;;;;;;;3.10;1.75;;;;;;;;;;5018584;28;20053;-67
2023/01/26 03:34:57;;;;;;;2.83;1.67;;;;;;;;;;5024342;28;20426;-73
2023/01/26 03:37:22;;;;;;;2.70;1.90;;;;;;;;;;5025087;28;20049;-67
2023/01/26 03:56:21;;;;;;;2.25;1.63;;;;;;;;;;5025615;28;20467;-67
2023/01/26 03:58:47;;;;;;;2.45;1.80;;;;;;;;;;5025412;28;20021;-73
2023/01/26 04:01:18;;;;;;;2.50;1.70;;;;;;;;;;5022044;28;20018;-71
2023/01/26 04:09:12;;;;;;;2.78;1.70;;;;;;;;;;5022671;28;20504;-71
2023/01/26 04:11:37;;;;;;;2.63;1.77;;;;;;;;;;5008547;28;20065;-71
2023/01/26 04:22:14;;;;;;;2.15;1.60;;;;;;;;;;5012824;28;20044;-71
2023/01/26 04:24:39;;;;;;;2.58;1.60;;;;;;;;;;5020535;28;20504;-69
2023/01/26 04:27:04;;;;;;;2.30;1.80;;;;;;;;;;5007081;28;20046;-72
2023/01/26 04:29:30;;;;;;;2.63;1.73;;;;;;;;;;5022398;28;20428;-71
2023/01/26 04:31:55;;;;;;;2.53;1.80;;;;;;;;;;5021566;28;20293;-70
2023/01/26 04:34:21;;;;;;;2.20;1.70;;;;;;;;;;5023042;28;20030;-66
2023/01/26 04:36:47;;;;;;;2.28;1.50;;;;;;;;;;5008051;28;20308;-73
2023/01/26 04:39:12;;;;;;;2.73;1.63;;;;;;;;;;5024232;28;20056;-68
2023/01/26 04:41:37;;;;;;;2.22;1.60;;;;;;;;;;5022436;28;20426;-66
2023/01/26 04:44:03;;;;;;;2.50;1.70;;;;;;;;;;5010342;28;20470;-71
2023/01/26 04:46:28;;;;;;;2.45;1.67;;;;;;;;;;5021843;28;20274;-68
2023/01/26 04:48:54;;;;;;;2.50;1.90;;;;;;;;;;5024194;28;20041;-70
2023/01/26 04:51:19;;;;;;;2.90;1.50;;;;;;;;;;5025695;28;20082;-74
2023/01/26 04:53:45;;;;;;;2.17;1.50;;;;;;;;;;5007147;28;20112;-70
2023/01/26 04:56:27;;;;;;;2.00;1.58;;;;;;;;;;5019549;28;20156;-69
2023/01/26 04:58:52;;;;;;;2.75;1.80;;;;;;;;;;5014891;28;20057;-73
2023/01/26 05:01:18;;;;;;;2.35;1.85;;;;;;;;;;5005023;28;20037;-67
2023/01/26 05:03:43;;;;;;;2.03;1.40;;;;;;;;;;5018490;28;20050;-68
2023/01/26 05:06:08;;;;;;;2.25;1.65;;;;;;;;;;4998701;28;20025;-71
2023/01/26 05:08:34;;;;;;;2.42;1.60;;;;;;;;;;5027855;28;20037;-62
2023/01/26 05:11:00;;;;;;;1.92;1.45;;;;;;;;;;5021981;28;20112;-69
2023/01/26 05:13:25;;;;;;;1.92;1.60;;;;;;;;;;5021767;28;20120;-65
2023/01/26 05:15:51;;;;;;;2.22;1.67;;;;;;;;;;5003307;28;20034;-68
2023/01/26 05:18:16;;;;;;;3.03;1.80;;;;;;;;;;4999451;28;20077;-69
2023/01/26 05:20:41;;;;;;;2.10;1.53;;;;;;;;;;5017816;28;20268;-65
2023/01/26 05:23:06;;;;;;;2.00;1.27;;;;;;;;;;5027866;28;20277;-62
2023/01/26 05:25:32;;;;;;;2.20;1.70;;;;;;;;;;5020462;28;20405;-63
2023/01/26 05:27:57;;;;;;;2.20;1.33;;;;;;;;;;5029336;28;20681;-61
2023/01/26 05:30:22;;;;;;;2.38;1.50;;;;;;;;;;5029009;28;20229;-63
2023/01/26 05:32:47;;;;;;;2.10;1.60;;;;;;;;;;5009335;28;20128;-60
2023/01/26 05:35:13;;;;;;;1.77;1.33;;;;;;;;;;5030893;28;20021;-61
2023/01/26 05:37:38;;;;;;;2.27;1.50;;;;;;;;;;5013390;28;20295;-67
2023/01/26 05:40:03;;;;;;;1.77;1.27;;;;;;;;;;5019457;28;20292;-69
2023/01/26 05:42:29;;;;;;;2.22;1.33;;;;;;;;;;5031294;28;20268;-62
2023/01/26 05:44:54;;;;;;;2.30;1.57;;;;;;;;;;5010023;28;20654;-65
2023/01/26 05:47:19;;;;;;;2.10;1.47;;;;;;;;;;5019533;28;20290;-65
2023/01/26 05:49:44;;;;;;;2.25;1.40;;;;;;;;;;5031628;28;20256;-63
2023/01/26 05:52:10;;;;;;;2.75;1.35;;;;;;;;;;5012463;28;20018;-63
2023/01/26 05:54:35;;;;;;;1.90;1.38;;;;;;;;;;5026992;28;20477;-61
2023/01/26 05:57:01;;;;;;;2.28;1.52;;;;;;;;;;5022225;28;20022;-63
2023/01/26 05:59:26;;;;;;;1.90;1.27;;;;;;;;;;5004005;28;20020;-63
2023/01/26 06:01:51;;;;;;;1.80;1.30;;;;;;;;;;5017044;28;20013;-67
2023/01/26 06:04:17;;;;;;;1.50;1.20;;;;;;;;;;5028847;28;20329;-66
2023/01/26 06:06:42;;;;;;;1.98;1.45;;;;;;;;;;5016489;28;20347;-61
2023/01/26 06:09:07;;;;;;;2.00;1.50;;;;;;;;;;5003819;28;20014;-66
2023/01/26 06:11:32;;;;;;;2.78;1.60;;;;;;;;;;5027885;28;20356;-62
2023/01/26 06:13:58;;;;;;;2.03;1.30;;;;;;;;;;5011556;28;20582;-62
2023/01/26 06:16:23;;;;;;;2.40;1.48;;;;;;;;;;5008236;28;20025;-65
2023/01/26 06:18:48;;;;;;;2.33;1.70;;;;;;;;;;5027584;28;20021;-66
2023/01/26 06:21:14;;;;;;;1.75;1.40;;;;;;;;;;5025731;28;20106;-65
2023/01/26 06:23:39;;;;;;;1.85;1.38;;;;;;;;;;5042762;28;20390;-63
2023/01/26 06:26:05;;;;;;;2.70;1.27;;;;;;;;;;5016723;28;20013;-66
2023/01/26 06:28:30;;;;;;;1.60;1.30;;;;;;;;;;5009789;28;20358;-65
2023/01/26 06:30:59;;;;;;;2.28;1.45;;;;;;;;;;4999001;28;20045;-67
2023/01/26 06:33:24;;;;;;;1.92;1.23;;;;;;;;;;5021109;28;20076;-71
2023/01/26 06:35:53;;;;;;;2.33;1.20;;;;;;;;;;5023540;28;20269;-65
2023/01/26 06:38:18;;;;;;;1.95;1.30;;;;;;;;;;5015107;28;20315;-68
2023/01/26 06:40:43;;;;;;;1.90;1.40;;;;;;;;;;5008147;28;20017;-66
2023/01/26 06:43:09;;;;;;;1.53;1.23;;;;;;;;;;5007115;28;20076;-60
2023/01/26 06:45:34;;;;;;;2.20;1.50;;;;;;;;;;5010882;28;20368;-65
2023/01/26 06:47:59;;;;;;;2.50;1.30;;;;;;;;;;4996465;28;20152;-61
2023/01/26 06:50:25;;;;;;;2.13;1.50;;;;;;;;;;5001441;28;20913;-66
2023/01/26 06:52:50;;;;;;;2.83;1.48;;;;;;;;;;5007177;28;20100;-63
2023/01/26 06:55:18;;;;;;;7.20;1.63;;;;;;;;;;5007404;28;20406;-62
2023/01/26 06:57:43;;;;;;;2.65;1.40;;;;;;;;;;5014777;28;20059;-62
2023/01/26 07:00:08;;;;;;;2.20;1.20;;;;;;;;;;5013100;28;20481;-66
2023/01/26 07:02:34;;;;;;;2.13;1.27;;;;;;;;;;5014862;28;20648;-65
2023/01/26 07:04:59;;;;;;;2.00;1.40;;;;;;;;;;5006486;28;20157;-67
2023/01/26 07:07:24;;;;;;;1.87;1.10;;;;;;;;;;5011128;28;20268;-66
2023/01/26 07:09:49;;;;;;;3.37;1.70;;;;;;;;;;5001594;28;20287;-65
2023/01/26 07:12:15;;;;;;;3.77;1.60;;;;;;;;;;5004839;28;20898;-62
2023/01/26 07:14:40;;;;;;;3.20;1.67;;;;;;;;;;5022253;28;20346;-66
2023/01/26 07:17:05;;;;;;;2.78;1.30;;;;;;;;;;5024148;28;20288;-63
2023/01/26 07:19:32;;;;;;;2.17;1.40;;;;;;;;;;5024227;28;20783;-64
2023/01/26 07:21:57;;;;;;;2.92;1.63;;;;;;;;;;5013055;28;20280;-63
2023/01/26 07:24:23;;;;;;;3.67;1.43;;;;;;;;;;5013240;28;20025;-61
2023/01/26 07:26:48;;;;;;;2.27;1.40;;;;;;;;;;4995771;28;20356;-63
2023/01/26 07:29:13;;;;;;;3.22;1.60;;;;;;;;;;5005791;28;20331;-64
2023/01/26 07:31:40;;;;;;;2.53;1.40;;;;;;;;;;5014387;28;20060;-65
2023/01/26 07:34:05;;;;;;;2.47;1.60;;;;;;;;;;5028434;28;20270;-62
2023/01/26 07:36:30;;;;;;;2.30;1.53;;;;;;;;;;5026001;28;20475;-63
2023/01/26 07:38:55;;;;;;;2.23;1.63;;;;;;;;;;5022673;28;20260;-65
2023/01/26 07:41:21;;;;;;;2.50;1.80;;;;;;;;;;5016228;28;20283;-63
2023/01/26 07:43:46;;;;;;;3.13;1.77;;;;;;;;;;5028263;28;20295;-64
2023/01/26 07:46:11;;;;;;;2.83;1.70;;;;;;;;;;5027958;28;20037;-65
2023/01/26 07:48:37;;;;;;;3.10;1.37;;;;;;;;;;5022348;28;20102;-64
2023/01/26 07:51:02;;;;;;;3.75;1.50;;;;;;;;;;5026929;28;20272;-64
2023/01/26 07:53:28;;;;;;;2.53;1.45;;;;;;;;;;5039663;28;20408;-60
2023/01/26 07:55:55;;;;;;;2.50;1.88;;;;;;;;;;5017149;28;20021;-62
2023/01/26 07:58:20;;;;;;;2.67;1.70;;;;;;;;;;4998318;28;20445;-63
2023/01/26 08:00:46;;;;;;;3.23;1.50;;;;;;;;;;5027663;28;20025;-63
2023/01/26 08:03:11;;;;;;;2.60;1.55;;;;;;;;;;5026920;28;20351;-65
2023/01/26 08:05:42;;;;;;;2.60;1.65;;;;;;;;;;5025881;28;20079;-64
2023/01/26 08:08:08;;;;;;;3.00;1.75;;;;;;;;;;5013091;23;20046;-67
2023/01/26 08:10:33;;;;;;;2.42;1.55;;;;;;;;;;4984098;28;20090;-68
2023/01/26 08:12:59;;;;;;;2.60;1.67;;;;;;;;;;4997262;28;20042;-70
2023/01/26 08:15:24;;;;;;;3.75;1.77;;;;;;;;;;4970475;28;20278;-64
2023/01/26 08:17:50;;;;;;;3.08;1.80;;;;;;;;;;5003064;28;20116;-64
2023/01/26 08:20:15;;;;;;;2.90;1.83;;;;;;;;;;4970607;28;20046;-68
2023/01/26 08:22:40;;;;;;;2.95;1.80;;;;;;;;;;4987309;28;20041;-66
2023/01/26 08:25:06;;;;;;;2.23;1.50;;;;;;;;;;4971506;28;20515;-66
2023/01/26 08:27:31;;;;;;;3.40;1.92;;;;;;;;;;4965827;23;20321;-75
2023/01/26 08:29:57;;;;;;;3.60;1.70;;;;;;;;;;4967756;28;20030;-76
2023/01/26 08:32:22;;;;;;;2.78;1.70;;;;;;;;;;4986666;28;20278;-67
2023/01/26 08:34:48;;;;;;;2.80;1.80;;;;;;;;;;4997633;28;20738;-62
2023/01/26 08:37:13;;;;;;;4.13;1.83;;;;;;;;;;4976245;28;20367;-73
2023/01/26 08:39:38;;;;;;;2.70;2.03;;;;;;;;;;4977972;28;20397;-69
2023/01/26 08:42:03;;;;;;;3.58;2.10;;;;;;;;;;4972379;28;20269;-75
2023/01/26 08:44:28;;;;;;;2.57;1.80;;;;;;;;;;4987485;28;20056;-64
2023/01/26 08:46:54;;;;;;;2.40;1.63;;;;;;;;;;4986461;28;20343;-67
2023/01/26 08:49:19;;;;;;;2.60;1.70;;;;;;;;;;4985209;28;20278;-72
2023/01/26 08:51:44;;;;;;;2.77;1.90;;;;;;;;;;4984734;28;20282;-74
2023/01/26 08:54:09;;;;;;;2.93;1.70;;;;;;;;;;4986740;28;20065;-73
2023/01/26 08:56:35;;;;;;;2.37;1.60;;;;;;;;;;4984346;28;20364;-72
2023/01/26 08:59:00;;;;;;;3.10;1.95;;;;;;;;;;4985880;28;20722;-74
2023/01/26 09:01:25;;;;;;;3.00;1.80;;;;;;;;;;4985445;28;20097;-73
2023/01/26 09:03:51;;;;;;;3.58;1.90;;;;;;;;;;4986648;28;20426;-67
2023/01/26 09:06:17;;;;;;;3.78;2.00;;;;;;;;;;4984543;28;20116;-69
2023/01/26 09:08:42;;;;;;;3.67;2.03;;;;;;;;;;4984987;28;20038;-72
2023/01/26 09:11:07;;;;;;;2.53;1.55;;;;;;;;;;4985986;28;20038;-75
2023/01/26 09:13:33;;;;;;;3.70;2.22;;;;;;;;;;4986371;28;20419;-67
2023/01/26 09:15:58;;;;;;;3.03;1.48;;;;;;;;;;4985097;28;20030;-71
2023/01/26 09:18:23;;;;;;;3.00;2.13;;;;;;;;;;4984737;28;20471;-72
2023/01/26 09:20:50;;;;;;;2.95;2.00;;;;;;;;;;4984715;28;20725;-70
2023/01/26 09:23:16;;;;;;;3.22;2.10;;;;;;;;;;4986036;28;20073;-68
2023/01/26 09:25:42;;;;;;;3.60;2.28;;;;;;;;;;4984777;28;20043;-68
2023/01/26 09:28:07;;;;;;;2.80;1.90;;;;;;;;;;4985171;28;20093;-74
2023/01/26 09:30:32;;;;;;;2.90;1.77;;;;;;;;;;4992716;28;20384;-72
2023/01/26 09:33:01;;;;;;;2.83;2.10;;;;;;;;;;4986505;28;20320;-69
2023/01/26 09:35:26;;;;;;;2.67;1.70;;;;;;;;;;4993923;28;20355;-72
2023/01/26 09:37:52;;;;;;;2.55;1.83;;;;;;;;;;4984430;28;20825;-71
2023/01/26 09:40:19;;;;;;;3.10;2.03;;;;;;;;;;4984639;28;20081;-72
2023/01/26 09:43:04;;;;;;;2.60;1.88;;;;;;;;;;4986329;28;20479;-70
2023/01/26 09:45:33;;;;;;;2.72;1.70;;;;;;;;;;4984500;28;20050;-71
2023/01/26 09:48:08;;;;;;;3.67;2.13;;;;;;;;;;4984885;28;20035;-66
2023/01/26 09:50:54;;;;;;;2.92;1.90;;;;;;;;;;4984611;28;20041;-74
2023/01/26 09:53:24;;;;;;;3.00;1.95;;;;;;;;;;4985868;28;20057;-76
2023/01/26 09:55:50;;;;;;;2.70;1.88;;;;;;;;;;4984268;28;20542;-70
2023/01/26 09:58:17;;;;;;;2.57;1.80;;;;;;;;;;4984654;28;20100;-67
2023/01/26 10:00:46;;;;;;;3.45;1.70;;;;;;;;;;4984124;28;20281;-72
2023/01/26 10:03:37;;;;;;;3.28;1.83;;;;;;;;;;4984129;28;20050;-70
2023/01/26 10:06:15;;;;;;;2.60;1.80;;;;;;;;;;4982991;28;20038;-72
2023/01/26 10:08:40;;;;;;;2.53;1.83;;;;;;;;;;4987053;28;20062;-70
2023/01/26 10:11:10;;;;;;;3.25;2.00;;;;;;;;;;4987811;28;20050;-65
2023/01/26 10:13:35;;;;;;;2.60;1.83;;;;;;;;;;4987977;28;20080;-73
2023/01/26 10:16:02;;;;;;;2.30;1.73;;;;;;;;;;4989255;28;20523;-76
2023/01/26 10:18:39;;;;;;;3.08;1.90;;;;;;;;;;4988344;28;20286;-66
2023/01/26 10:21:05;;;;;;;2.72;1.90;;;;;;;;;;4986654;28;20041;-65
2023/01/26 10:23:33;;;;;;;2.90;1.80;;;;;;;;;;4988864;28;20031;-73
2023/01/26 10:26:15;;;;;;;2.70;1.80;;;;;;;;;;4975999;28;20282;-74
2023/01/26 10:28:40;;;;;;;3.17;1.90;;;;;;;;;;4995367;28;20104;-68
2023/01/26 10:31:08;;;;;;;3.53;2.10;;;;;;;;;;4992086;28;20038;-73
2023/01/26 10:33:33;;;;;;;2.70;1.90;;;;;;;;;;4993042;28;20034;-70
2023/01/26 10:35:59;;;;;;;2.97;1.90;;;;;;;;;;4991431;28;20447;-65
2023/01/26 10:38:25;;;;;;;2.97;1.98;;;;;;;;;;4989925;28;20057;-74
2023/01/26 10:40:50;;;;;;;2.40;1.77;;;;;;;;;;4987881;28;20057;-72
2023/01/26 10:43:16;;;;;;;3.00;1.87;;;;;;;;;;4988200;28;20430;-74
2023/01/26 10:45:45;;;;;;;2.40;1.65;;;;;;;;;;4988147;28;20301;-72
2023/01/26 10:48:13;;;;;;;2.88;1.73;;;;;;;;;;4988625;28;20026;-74
2023/01/26 10:50:39;;;;;;;2.78;1.83;;;;;;;;;;4971204;28;20376;-64
2023/01/26 10:53:04;;;;;;;2.80;2.00;;;;;;;;;;4987659;28;20485;-66
2023/01/26 10:55:30;;;;;;;2.30;1.60;;;;;;;;;;4987527;28;20037;-74
2023/01/26 10:57:55;;;;;;;2.53;1.88;;;;;;;;;;4987358;28;20056;-74
2023/01/26 11:00:21;;;;;;;2.65;1.83;;;;;;;;;;4987102;28;20459;-67
2023/01/26 11:02:50;;;;;;;2.15;1.70;;;;;;;;;;4988664;28;20040;-69
2023/01/26 11:05:19;;;;;;;2.40;1.77;;;;;;;;;;4987666;28;20055;-74
2023/01/26 11:07:45;;;;;;;2.60;1.73;;;;;;;;;;4987059;28;20105;-67
2023/01/26 11:10:18;;;;;;;2.80;1.73;;;;;;;;;;4987288;28;20026;-76
2023/01/26 11:12:43;;;;;;;2.30;1.58;;;;;;;;;;4987121;28;20644;-75
2023/01/26 11:15:16;;;;;;;2.10;1.60;;;;;;;;;;4989061;28;20027;-64
2023/01/26 11:17:57;;;;;;;2.38;1.70;;;;;;;;;;4986621;28;20390;-69
2023/01/26 11:20:25;;;;;;;2.00;1.50;;;;;;;;;;4988698;28;20050;-74
2023/01/26 11:23:09;;;;;;;2.88;1.95;;;;;;;;;;4989110;28;20030;-75
2023/01/26 11:25:35;;;;;;;2.10;1.50;;;;;;;;;;4979897;28;20047;-68
2023/01/26 11:28:09;;;;;;;2.42;1.85;;;;;;;;;;4975301;28;20062;-70
2023/01/26 11:31:04;;;;;;;2.42;1.67;;;;;;;;;;4983954;28;20464;-71
2023/01/26 11:33:43;;;;;;;2.63;1.80;;;;;;;;;;4951000;28;20105;-70
2023/01/26 11:36:14;;;;;;;2.53;1.95;;;;;;;;;;4988784;28;20042;-72
2023/01/26 11:38:40;;;;;;;2.92;1.58;;;;;;;;;;4987114;28;20042;-70
2023/01/26 11:41:11;;;;;;;2.63;1.98;;;;;;;;;;4987144;28;20558;-70
2023/01/26 11:43:36;;;;;;;2.88;2.00;;;;;;;;;;4987935;28;20044;-72
2023/01/26 11:46:17;;;;;;;2.87;1.60;;;;;;;;;;4970394;28;20113;-75
2023/01/26 11:48:43;;;;;;;2.22;1.65;;;;;;;;;;4966837;28;20722;-73
2023/01/26 11:51:15;;;;;;;2.60;1.70;;;;;;;;;;4987515;28;20034;-65
2023/01/26 11:53:46;;;;;;;2.72;1.83;;;;;;;;;;4970714;28;20114;-66
2023/01/26 11:56:15;;;;;;;2.58;1.67;;;;;;;;;;4987924;28;20030;-75
2023/01/26 11:58:46;;;;;;;3.28;1.80;;;;;;;;;;4987425;28;21019;-71
2023/01/26 12:01:38;;;;;;;2.47;1.75;;;;;;;;;;4987994;28;20042;-78
2023/01/26 12:04:03;;;;;;;2.28;1.70;;;;;;;;;;4985751;28;20419;-74
2023/01/26 12:06:36;;;;;;;2.77;1.70;;;;;;;;;;4987528;28;20069;-76
2023/01/26 12:09:02;;;;;;;2.28;1.70;;;;;;;;;;4986350;28;20041;-73
2023/01/26 12:11:32;;;;;;;2.40;1.60;;;;;;;;;;4986574;28;20030;-76
2023/01/26 12:14:16;;;;;;;2.83;1.90;;;;;;;;;;4985830;28;20105;-73
2023/01/26 12:16:41;;;;;;;2.63;1.85;;;;;;;;;;4987388;28;20038;-77
2023/01/26 12:19:25;;;;;;;2.40;1.60;;;;;;;;;;4987223;28;20529;-71
2023/01/26 12:21:51;;;;;;;2.28;1.65;;;;;;;;;;4975044;28;20277;-74
2023/01/26 12:24:19;;;;;;;2.43;1.80;;;;;;;;;;4985972;28;20185;-71
2023/01/26 12:26:46;;;;;;;2.92;1.95;;;;;;;;;;4986345;28;20359;-74
2023/01/26 12:29:16;;;;;;;2.65;1.88;;;;;;;;;;4985448;28;20045;-65
2023/01/26 12:31:57;;;;;;;2.13;1.67;;;;;;;;;;4969130;28;20041;-69
2023/01/26 12:34:26;;;;;;;2.53;1.73;;;;;;;;;;4994494;28;20155;-75
2023/01/26 12:36:52;;;;;;;2.77;1.80;;;;;;;;;;4976785;28;20058;-75
2023/01/26 12:39:25;;;;;;;2.30;1.60;;;;;;;;;;4987504;28;20043;-70
2023/01/26 12:42:01;;;;;;;2.55;1.70;;;;;;;;;;4986478;28;20045;-72
2023/01/26 12:44:36;;;;;;;2.33;1.55;;;;;;;;;;4986063;28;20625;-75
2023/01/26 12:47:04;;;;;;;2.63;1.70;;;;;;;;;;4986769;28;20038;-75
2023/01/26 12:49:30;;;;;;;2.30;1.80;;;;;;;;;;4970052;28;20046;-74
2023/01/26 12:51:58;;;;;;;2.83;2.00;;;;;;;;;;4985991;28;20031;-75
2023/01/26 12:54:43;;;;;;;2.38;1.75;;;;;;;;;;4985578;28;20035;-68
2023/01/26 12:57:13;;;;;;;2.55;1.88;;;;;;;;;;4968568;28;20050;-76
2023/01/26 12:59:39;;;;;;;;;;;;;;;;;;4985716;28;20134;-64
2023/01/26 13:02:22;;;;;;;1.88;1.42;;;;;;;;;;4969440;28;20105;-61
2023/01/26 13:04:47;;;;;;;2.17;1.50;;;;;;;;;;4986293;28;20047;-70
2023/01/26 13:07:26;;;;;;;2.75;1.67;;;;;;;;;;4969519;28;20034;-76
2023/01/26 13:10:06;;;;;;;2.05;1.48;;;;;;;;;;4985818;28;20018;-72
2023/01/26 13:12:31;;;;;;;;;;;;;;;;;;4987679;28;20045;-72
2023/01/26 13:14:59;;;;;;;2.38;1.30;;;;;;;;;;4986811;28;19909;-71
2023/01/26 13:17:26;;;;;;;2.30;1.63;;;;;;;;;;4986704;28;20608;-75
2023/01/26 13:19:52;;;;;;;2.08;1.60;;;;;;;;;;4987372;28;20107;-65
2023/01/26 13:22:17;;;;;;;2.10;1.52;;;;;;;;;;4986232;28;20038;-69
2023/01/26 13:24:43;;;;;;;2.27;1.47;;;;;;;;;;4987116;28;20133;-75
2023/01/26 13:27:25;;;;;;;2.78;1.77;;;;;;;;;;4969695;28;20375;-73
2023/01/26 13:29:52;;;;;;;2.72;1.70;;;;;;;;;;4965169;28;20062;-73
2023/01/26 13:32:17;;;;;;;1.90;1.40;;;;;;;;;;4964197;28;20050;-76
2023/01/26 13:34:44;;;;;;;2.23;1.50;;;;;;;;;;4961300;28;20480;-72
2023/01/26 13:37:11;;;;;;;2.72;1.90;;;;;;;;;;4933954;28;20314;-65
2023/01/26 13:39:37;;;;;;;2.45;1.63;;;;;;;;;;4962118;28;20368;-69
2023/01/26 13:42:02;;;;;;;2.30;1.60;;;;;;;;;;4968742;28;20034;-74
2023/01/26 13:44:38;;;;;;;2.70;1.90;;;;;;;;;;4969862;28;20035;-75
2023/01/26 13:47:23;;;;;;;2.35;1.70;;;;;;;;;;4930980;29;20154;-69
2023/01/26 13:49:49;;;;;;;2.38;1.80;;;;;;;;;;4950959;29;20110;-70
2023/01/26 13:52:18;;;;;;;2.65;1.60;;;;;;;;;;4951698;28;20042;-74
2023/01/26 13:54:43;;;;;;;3.28;1.92;;;;;;;;;;4951022;28;20027;-71
2023/01/26 13:57:09;;;;;;;2.63;1.90;;;;;;;;;;4951220;28;20039;-71
2023/01/26 13:59:46;;;;;;;2.45;1.83;;;;;;;;;;4964553;28;20042;-72
2023/01/26 14:02:19;;;;;;;2.28;1.70;;;;;;;;;;4952792;28;20105;-69
2023/01/26 14:04:49;;;;;;;2.42;1.60;;;;;;;;;;4953188;28;20046;-66
2023/01/26 14:07:16;;;;;;;2.38;1.73;;;;;;;;;;4970484;28;20030;-71
2023/01/26 14:09:43;;;;;;;2.35;1.60;;;;;;;;;;4971012;28;20031;-72
2023/01/26 14:12:12;;;;;;;2.20;1.60;;;;;;;;;;4953785;28;20030;-70
2023/01/26 14:14:37;;;;;;;2.60;1.80;;;;;;;;;;4959529;28;20039;-73
2023/01/26 14:17:21;;;;;;;3.13;1.77;;;;;;;;;;4967928;28;20059;-72
2023/01/26 14:19:46;;;;;;;2.28;1.60;;;;;;;;;;4950333;28;20131;-75
2023/01/26 14:22:12;;;;;;;2.50;1.90;;;;;;;;;;4934751;28;20114;-75
2023/01/26 14:24:41;;;;;;;2.30;1.63;;;;;;;;;;4966719;28;20274;-74
2023/01/26 14:27:25;;;;;;;2.50;1.90;;;;;;;;;;4966076;28;20042;-74
2023/01/26 14:29:50;;;;;;;2.47;1.92;;;;;;;;;;4967822;28;20035;-72
2023/01/26 14:32:15;;;;;;;2.80;1.80;;;;;;;;;;4968124;28;20179;-71
2023/01/26 14:34:49;;;;;;;2.63;1.80;;;;;;;;;;4968019;28;20262;-76
2023/01/26 14:37:15;;;;;;;2.90;1.80;;;;;;;;;;4957536;28;20048;-75
2023/01/26 14:39:43;;;;;;;2.33;1.70;;;;;;;;;;4963290;28;20123;-76
2023/01/26 14:42:09;;;;;;;2.35;1.80;;;;;;;;;;4947151;28;20494;-74
2023/01/26 14:44:35;;;;;;;2.88;1.83;;;;;;;;;;4928414;29;20047;-74
2023/01/26 14:47:00;;;;;;;2.27;1.73;;;;;;;;;;4950399;28;20360;-76
2023/01/26 14:49:31;;;;;;;3.10;1.90;;;;;;;;;;4967705;28;20291;-73
2023/01/26 14:51:57;;;;;;;4.15;2.20;;;;;;;;;;4966428;28;20129;-75
2023/01/26 14:54:32;;;;;;;2.30;1.45;;;;;;;;;;4958799;28;20499;-66
2023/01/26 14:56:57;;;;;;;2.50;1.70;;;;;;;;;;4962367;28;20043;-64
2023/01/26 14:59:24;;;;;;;3.17;1.80;;;;;;;;;;4966956;28;20046;-68
2023/01/26 15:01:49;;;;;;;3.25;2.00;;;;;;;;;;4966501;28;20043;-73
2023/01/26 15:04:25;;;;;;;2.45;1.60;;;;;;;;;;4966285;28;20046;-75
2023/01/26 15:06:50;;;;;;;2.50;1.58;;;;;;;;;;4966076;28;20483;-75
2023/01/26 15:09:19;;;;;;;2.30;1.90;;;;;;;;;;4966036;28;20113;-75
2023/01/26 15:14:34;;;;;;;2.88;1.73;;;;;;;;;;4962025;28;20089;-67
2023/01/26 15:17:00;;;;;;;2.65;1.90;;;;;;;;;;4946611;28;20401;-72
2023/01/26 15:19:26;;;;;;;2.88;2.08;;;;;;;;;;4962027;28;20034;-75
2023/01/26 15:21:51;;;;;;;2.45;1.75;;;;;;;;;;4946505;28;20039;-75
2023/01/26 15:24:16;;;;;;;2.37;1.70;;;;;;;;;;4949509;28;20101;-74
2023/01/26 15:26:41;;;;;;;2.60;1.88;;;;;;;;;;4965378;28;20290;-70
2023/01/26 15:29:19;;;;;;;2.97;1.83;;;;;;;;;;4965835;28;20121;-76
2023/01/26 15:31:47;;;;;;;2.33;1.67;;;;;;;;;;4955695;28;20122;-71